sensor_id;sensor_type;location;lat;lon;timestamp;pressure;altitude;pressure_sealevel;temperature;humidity
19736;BME280;32064;49.310;8.646;2023-05-27T00:01:22;101274.38;;;19.63;44.20
19736;BME280;32064;49.310;8.646;2023-05-27T00:03:47;101283.63;;;19.59;45.34
19736;BME280;32064;49.310;8.646;2023-05-27T00:06:12;101276.63;;;19.58;44.97
19736;BME280;32064;49.310;8.646;2023-05-27T00:08:38;101278.03;;;19.52;45.13
19736;BME280;32064;49.310;8.646;2023-05-27T00:11:04;101281.13;;;19.47;45.37
19736;BME280;32064;49.310;8.646;2023-05-27T00:13:30;101277.50;;;19.48;45.91
19736;BME280;32064;49.310;8.646;2023-05-27T00:15:55;101272.16;;;19.48;45.35
19736;BME280;32064;49.310;8.646;2023-05-27T00:18:21;101275.78;;;19.47;45.41
19736;BME280;32064;49.310;8.646;2023-05-27T00:20:47;101283.81;;;19.47;44.93
19736;BME280;32064;49.310;8.646;2023-05-27T00:23:13;101285.94;;;19.44;45.11
19736;BME280;32064;49.310;8.646;2023-05-27T00:25:39;101282.41;;;19.43;44.65
19736;BME280;32064;49.310;8.646;2023-05-27T00:28:05;101279.34;;;19.38;45.72
19736;BME280;32064;49.310;8.646;2023-05-27T00:30:30;101271.06;;;19.32;45.49
19736;BME280;32064;49.310;8.646;2023-05-27T00:32:56;101279.19;;;19.30;45.05
19736;BME280;32064;49.310;8.646;2023-05-27T00:35:21;101282.16;;;19.27;45.48
19736;BME280;32064;49.310;8.646;2023-05-27T00:37:47;101279.06;;;19.22;46.04
19736;BME280;32064;49.310;8.646;2023-05-27T00:40:14;101276.69;;;19.19;46.54
19736;BME280;32064;49.310;8.646;2023-05-27T00:42:40;101272.34;;;19.18;46.50
19736;BME280;32064;49.310;8.646;2023-05-27T00:45:06;101277.97;;;19.15;45.69
19736;BME280;32064;49.310;8.646;2023-05-27T00:47:33;101281.75;;;19.12;46.73
19736;BME280;32064;49.310;8.646;2023-05-27T00:49:59;101290.19;;;19.17;45.77
19736;BME280;32064;49.310;8.646;2023-05-27T00:52:25;101285.69;;;19.18;45.97
19736;BME280;32064;49.310;8.646;2023-05-27T00:54:52;101285.81;;;19.16;46.28
19736;BME280;32064;49.310;8.646;2023-05-27T00:57:18;101274.47;;;19.14;46.57
19736;BME280;32064;49.310;8.646;2023-05-27T00:59:44;101283.88;;;19.09;46.50
19736;BME280;32064;49.310;8.646;2023-05-27T01:02:10;101275.44;;;19.03;46.47
19736;BME280;32064;49.310;8.646;2023-05-27T01:04:36;101271.94;;;19.03;45.25
19736;BME280;32064;49.310;8.646;2023-05-27T01:07:03;101279.53;;;18.98;45.42
19736;BME280;32064;49.310;8.646;2023-05-27T01:09:44;101276.00;;;18.97;45.84
19736;BME280;32064;49.310;8.646;2023-05-27T01:12:27;101274.19;;;18.98;45.74
19736;BME280;32064;49.310;8.646;2023-05-27T01:14:57;101268.84;;;18.98;45.75
19736;BME280;32064;49.310;8.646;2023-05-27T01:17:24;101271.22;;;19.01;45.41
19736;BME280;32064;49.310;8.646;2023-05-27T01:19:52;101265.91;;;19.01;46.06
19736;BME280;32064;49.310;8.646;2023-05-27T01:22:19;101263.66;;;18.96;45.87
19736;BME280;32064;49.310;8.646;2023-05-27T01:24:45;101268.13;;;18.96;46.39
19736;BME280;32064;49.310;8.646;2023-05-27T01:27:12;101264.09;;;18.92;46.74
19736;BME280;32064;49.310;8.646;2023-05-27T01:29:40;101268.00;;;18.88;46.27
19736;BME280;32064;49.310;8.646;2023-05-27T01:32:18;101258.59;;;18.83;46.64
19736;BME280;32064;49.310;8.646;2023-05-27T01:35:13;101257.34;;;18.78;47.41
19736;BME280;32064;49.310;8.646;2023-05-27T01:37:44;101256.03;;;18.72;47.05
19736;BME280;32064;49.310;8.646;2023-05-27T01:40:11;101254.97;;;18.75;46.80
19736;BME280;32064;49.310;8.646;2023-05-27T01:42:39;101255.91;;;18.74;46.69
19736;BME280;32064;49.310;8.646;2023-05-27T01:45:06;101258.84;;;18.71;45.92
19736;BME280;32064;49.310;8.646;2023-05-27T01:47:32;101246.63;;;18.68;46.73
19736;BME280;32064;49.310;8.646;2023-05-27T01:49:58;101254.63;;;18.68;47.12
19736;BME280;32064;49.310;8.646;2023-05-27T01:52:23;101252.81;;;18.69;46.54
19736;BME280;32064;49.310;8.646;2023-05-27T01:54:49;101251.13;;;18.68;46.05
19736;BME280;32064;49.310;8.646;2023-05-27T01:57:16;101254.78;;;18.67;46.18
19736;BME280;32064;49.310;8.646;2023-05-27T01:59:41;101254.06;;;18.65;46.98
19736;BME280;32064;49.310;8.646;2023-05-27T02:02:07;101255.06;;;18.63;46.98
19736;BME280;32064;49.310;8.646;2023-05-27T02:04:32;101252.38;;;18.63;45.92
19736;BME280;32064;49.310;8.646;2023-05-27T02:06:57;101246.22;;;18.63;46.88
19736;BME280;32064;49.310;8.646;2023-05-27T02:09:23;101244.41;;;18.63;45.83
19736;BME280;32064;49.310;8.646;2023-05-27T02:11:48;101247.19;;;18.62;46.45
19736;BME280;32064;49.310;8.646;2023-05-27T02:14:14;101237.63;;;18.59;46.05
19736;BME280;32064;49.310;8.646;2023-05-27T02:16:39;101240.47;;;18.58;45.66
19736;BME280;32064;49.310;8.646;2023-05-27T02:19:05;101249.41;;;18.57;45.72
19736;BME280;32064;49.310;8.646;2023-05-27T02:21:32;101247.03;;;18.54;46.99
19736;BME280;32064;49.310;8.646;2023-05-27T02:23:57;101241.13;;;18.50;46.90
19736;BME280;32064;49.310;8.646;2023-05-27T02:26:23;101239.47;;;18.49;46.15
19736;BME280;32064;49.310;8.646;2023-05-27T02:28:49;101242.13;;;18.49;46.43
19736;BME280;32064;49.310;8.646;2023-05-27T02:31:15;101239.88;;;18.45;46.78
19736;BME280;32064;49.310;8.646;2023-05-27T02:33:40;101246.75;;;18.47;46.62
19736;BME280;32064;49.310;8.646;2023-05-27T02:36:06;101231.75;;;18.46;46.97
19736;BME280;32064;49.310;8.646;2023-05-27T02:38:32;101240.16;;;18.42;46.13
19736;BME280;32064;49.310;8.646;2023-05-27T02:40:57;101239.59;;;18.38;45.93
19736;BME280;32064;49.310;8.646;2023-05-27T02:43:23;101232.72;;;18.35;45.93
19736;BME280;32064;49.310;8.646;2023-05-27T02:45:48;101241.81;;;18.33;46.91
19736;BME280;32064;49.310;8.646;2023-05-27T02:48:14;101237.59;;;18.30;46.65
19736;BME280;32064;49.310;8.646;2023-05-27T02:50:39;101236.75;;;18.30;45.46
19736;BME280;32064;49.310;8.646;2023-05-27T02:53:05;101234.22;;;18.28;46.92
19736;BME280;32064;49.310;8.646;2023-05-27T02:55:30;101237.03;;;18.27;45.97
19736;BME280;32064;49.310;8.646;2023-05-27T02:57:56;101230.00;;;18.26;45.55
19736;BME280;32064;49.310;8.646;2023-05-27T03:00:21;101232.81;;;18.24;46.16
19736;BME280;32064;49.310;8.646;2023-05-27T03:02:47;101237.59;;;18.21;46.34
19736;BME280;32064;49.310;8.646;2023-05-27T03:05:13;101228.63;;;18.22;45.17
19736;BME280;32064;49.310;8.646;2023-05-27T03:07:38;101227.22;;;18.17;45.74
19736;BME280;32064;49.310;8.646;2023-05-27T03:10:07;101235.31;;;18.16;46.25
19736;BME280;32064;49.310;8.646;2023-05-27T03:12:33;101238.13;;;18.14;45.66
19736;BME280;32064;49.310;8.646;2023-05-27T03:14:58;101233.22;;;18.10;45.59
19736;BME280;32064;49.310;8.646;2023-05-27T03:17:24;101230.09;;;18.05;46.53
19736;BME280;32064;49.310;8.646;2023-05-27T03:19:49;101232.91;;;18.03;45.34
19736;BME280;32064;49.310;8.646;2023-05-27T03:22:15;101236.16;;;18.07;46.80
19736;BME280;32064;49.310;8.646;2023-05-27T03:24:40;101231.09;;;18.04;45.72
19736;BME280;32064;49.310;8.646;2023-05-27T03:27:06;101242.84;;;18.01;46.95
19736;BME280;32064;49.310;8.646;2023-05-27T03:29:32;101250.00;;;18.01;46.50
19736;BME280;32064;49.310;8.646;2023-05-27T03:31:58;101237.09;;;17.96;45.69
19736;BME280;32064;49.310;8.646;2023-05-27T03:34:23;101233.59;;;17.95;46.16
19736;BME280;32064;49.310;8.646;2023-05-27T03:36:49;101246.34;;;17.92;46.86
19736;BME280;32064;49.310;8.646;2023-05-27T03:39:16;101238.47;;;17.90;47.00
19736;BME280;32064;49.310;8.646;2023-05-27T03:41:42;101240.41;;;17.88;46.85
19736;BME280;32064;49.310;8.646;2023-05-27T03:44:07;101241.25;;;17.89;45.47
19736;BME280;32064;49.310;8.646;2023-05-27T03:46:34;101241.53;;;17.86;46.67
19736;BME280;32064;49.310;8.646;2023-05-27T03:49:00;101247.84;;;17.85;45.39
19736;BME280;32064;49.310;8.646;2023-05-27T03:51:26;101246.16;;;17.84;47.24
19736;BME280;32064;49.310;8.646;2023-05-27T03:53:51;101244.25;;;17.74;47.28
19736;BME280;32064;49.310;8.646;2023-05-27T03:56:17;101247.78;;;17.75;47.46
19736;BME280;32064;49.310;8.646;2023-05-27T03:58:42;101244.97;;;17.77;46.72
19736;BME280;32064;49.310;8.646;2023-05-27T04:01:08;101235.56;;;17.72;47.38
19736;BME280;32064;49.310;8.646;2023-05-27T04:03:33;101234.00;;;17.70;45.67
19736;BME280;32064;49.310;8.646;2023-05-27T04:05:59;101249.16;;;17.69;46.87
19736;BME280;32064;49.310;8.646;2023-05-27T04:08:25;101249.56;;;17.74;46.37
19736;BME280;32064;49.310;8.646;2023-05-27T04:10:55;101255.59;;;17.77;47.77
19736;BME280;32064;49.310;8.646;2023-05-27T04:13:20;101251.88;;;17.79;46.56
19736;BME280;32064;49.310;8.646;2023-05-27T04:15:46;101250.19;;;17.78;48.24
19736;BME280;32064;49.310;8.646;2023-05-27T04:18:12;101246.63;;;17.78;47.30
19736;BME280;32064;49.310;8.646;2023-05-27T04:20:39;101253.53;;;17.80;46.25
19736;BME280;32064;49.310;8.646;2023-05-27T04:23:09;101255.25;;;17.81;46.10
19736;BME280;32064;49.310;8.646;2023-05-27T04:25:35;101253.03;;;17.86;45.44
19736;BME280;32064;49.310;8.646;2023-05-27T04:28:02;101255.69;;;17.86;46.03
19736;BME280;32064;49.310;8.646;2023-05-27T04:30:32;101251.66;;;17.92;45.25
19736;BME280;32064;49.310;8.646;2023-05-27T04:33:07;101256.72;;;17.95;45.49
19736;BME280;32064;49.310;8.646;2023-05-27T04:35:33;101244.97;;;17.98;45.05
19736;BME280;32064;49.310;8.646;2023-05-27T04:37:59;101254.63;;;17.99;46.80
19736;BME280;32064;49.310;8.646;2023-05-27T04:40:28;101257.56;;;18.05;46.93
19736;BME280;32064;49.310;8.646;2023-05-27T04:42:54;101247.63;;;18.07;45.41
19736;BME280;32064;49.310;8.646;2023-05-27T04:45:21;101248.34;;;18.09;46.39
19736;BME280;32064;49.310;8.646;2023-05-27T04:47:46;101257.75;;;18.13;45.30
19736;BME280;32064;49.310;8.646;2023-05-27T04:50:13;101253.81;;;18.08;45.66
19736;BME280;32064;49.310;8.646;2023-05-27T04:52:39;101245.53;;;18.11;45.54
19736;BME280;32064;49.310;8.646;2023-05-27T04:55:07;101249.63;;;18.15;45.92
19736;BME280;32064;49.310;8.646;2023-05-27T04:57:33;101241.50;;;18.16;45.55
19736;BME280;32064;49.310;8.646;2023-05-27T04:59:59;101245.59;;;18.21;46.39
19736;BME280;32064;49.310;8.646;2023-05-27T05:02:27;101251.47;;;18.24;46.33
19736;BME280;32064;49.310;8.646;2023-05-27T05:05:03;101237.88;;;18.27;45.26
19736;BME280;32064;49.310;8.646;2023-05-27T05:07:29;101243.66;;;18.32;45.92
19736;BME280;32064;49.310;8.646;2023-05-27T05:09:55;101243.66;;;18.32;45.05
19736;BME280;32064;49.310;8.646;2023-05-27T05:12:21;101239.44;;;18.39;45.73
19736;BME280;32064;49.310;8.646;2023-05-27T05:14:47;101242.81;;;18.42;45.38
19736;BME280;32064;49.310;8.646;2023-05-27T05:17:12;101244.91;;;18.48;44.88
19736;BME280;32064;49.310;8.646;2023-05-27T05:19:37;101246.34;;;18.52;45.30
19736;BME280;32064;49.310;8.646;2023-05-27T05:22:04;101237.06;;;18.56;44.89
19736;BME280;32064;49.310;8.646;2023-05-27T05:24:29;101248.19;;;18.61;46.35
19736;BME280;32064;49.310;8.646;2023-05-27T05:26:54;101252.09;;;18.67;45.25
19736;BME280;32064;49.310;8.646;2023-05-27T05:29:20;101255.91;;;18.74;44.67
19736;BME280;32064;49.310;8.646;2023-05-27T05:31:45;101260.44;;;18.83;44.37
19736;BME280;32064;49.310;8.646;2023-05-27T05:34:11;101250.88;;;18.80;46.18
19736;BME280;32064;49.310;8.646;2023-05-27T05:36:37;101260.41;;;18.93;45.43
19736;BME280;32064;49.310;8.646;2023-05-27T05:39:03;101252.69;;;18.99;46.39
19736;BME280;32064;49.310;8.646;2023-05-27T05:41:29;101261.41;;;19.11;46.11
19736;BME280;32064;49.310;8.646;2023-05-27T05:43:54;101262.81;;;19.05;47.26
19736;BME280;32064;49.310;8.646;2023-05-27T05:46:20;101261.41;;;19.11;46.82
19736;BME280;32064;49.310;8.646;2023-05-27T05:48:45;101259.00;;;19.18;47.28
19736;BME280;32064;49.310;8.646;2023-05-27T05:51:11;101257.72;;;19.32;46.63
19736;BME280;32064;49.310;8.646;2023-05-27T05:53:36;101254.34;;;19.39;46.05
19736;BME280;32064;49.310;8.646;2023-05-27T05:56:02;101256.16;;;19.39;45.53
19736;BME280;32064;49.310;8.646;2023-05-27T05:58:27;101257.56;;;19.43;46.34
19736;BME280;32064;49.310;8.646;2023-05-27T06:00:53;101259.22;;;19.54;45.10
19736;BME280;32064;49.310;8.646;2023-05-27T06:03:18;101255.41;;;19.66;44.56
19736;BME280;32064;49.310;8.646;2023-05-27T06:05:43;101261.72;;;19.74;44.81
19736;BME280;32064;49.310;8.646;2023-05-27T06:08:09;101256.81;;;19.70;44.51
19736;BME280;32064;49.310;8.646;2023-05-27T06:10:34;101266.16;;;19.84;44.65
19736;BME280;32064;49.310;8.646;2023-05-27T06:13:00;101262.78;;;19.91;44.89
19736;BME280;32064;49.310;8.646;2023-05-27T06:15:25;101263.00;;;20.08;45.51
19736;BME280;32064;49.310;8.646;2023-05-27T06:17:53;101274.16;;;20.21;44.51
19736;BME280;32064;49.310;8.646;2023-05-27T06:20:19;101265.56;;;20.27;43.83
19736;BME280;32064;49.310;8.646;2023-05-27T06:22:45;101271.03;;;20.26;43.65
19736;BME280;32064;49.310;8.646;2023-05-27T06:25:12;101276.25;;;20.27;43.32
19736;BME280;32064;49.310;8.646;2023-05-27T06:27:38;101261.75;;;20.30;42.86
19736;BME280;32064;49.310;8.646;2023-05-27T06:30:04;101266.41;;;20.55;43.66
19736;BME280;32064;49.310;8.646;2023-05-27T06:32:29;101267.69;;;20.69;43.25
19736;BME280;32064;49.310;8.646;2023-05-27T06:34:55;101271.94;;;20.90;43.38
19736;BME280;32064;49.310;8.646;2023-05-27T06:37:21;101264.56;;;21.10;42.63
19736;BME280;32064;49.310;8.646;2023-05-27T06:39:46;101261.72;;;21.29;41.62
19736;BME280;32064;49.310;8.646;2023-05-27T06:42:13;101262.06;;;21.52;41.75
19736;BME280;32064;49.310;8.646;2023-05-27T06:44:38;101267.72;;;21.75;41.83
19736;BME280;32064;49.310;8.646;2023-05-27T06:47:04;101254.59;;;21.98;42.23
19736;BME280;32064;49.310;8.646;2023-05-27T06:49:29;101255.50;;;22.15;40.59
19736;BME280;32064;49.310;8.646;2023-05-27T06:51:55;101265.28;;;22.24;40.66
19736;BME280;32064;49.310;8.646;2023-05-27T06:54:21;101263.44;;;22.25;40.20
19736;BME280;32064;49.310;8.646;2023-05-27T06:56:46;101254.59;;;22.40;40.54
19736;BME280;32064;49.310;8.646;2023-05-27T06:59:11;101253.63;;;22.58;39.95
19736;BME280;32064;49.310;8.646;2023-05-27T07:01:37;101251.97;;;22.81;39.63
19736;BME280;32064;49.310;8.646;2023-05-27T07:04:02;101257.69;;;22.86;40.06
19736;BME280;32064;49.310;8.646;2023-05-27T07:06:28;101245.81;;;22.97;39.04
19736;BME280;32064;49.310;8.646;2023-05-27T07:08:54;101251.66;;;22.93;39.69
19736;BME280;32064;49.310;8.646;2023-05-27T07:11:19;101244.13;;;23.13;39.47
19736;BME280;32064;49.310;8.646;2023-05-27T07:13:45;101248.84;;;23.27;38.74
19736;BME280;32064;49.310;8.646;2023-05-27T07:16:10;101245.97;;;23.28;38.42
19736;BME280;32064;49.310;8.646;2023-05-27T07:18:36;101243.75;;;23.48;38.59
19736;BME280;32064;49.310;8.646;2023-05-27T07:21:01;101249.41;;;23.70;38.82
19736;BME280;32064;49.310;8.646;2023-05-27T07:23:27;101240.97;;;23.89;38.07
19736;BME280;32064;49.310;8.646;2023-05-27T07:25:52;101237.53;;;24.12;38.01
19736;BME280;32064;49.310;8.646;2023-05-27T07:28:17;101243.34;;;24.24;37.20
19736;BME280;32064;49.310;8.646;2023-05-27T07:30:43;101245.44;;;24.36;37.30
19736;BME280;32064;49.310;8.646;2023-05-27T07:33:08;101254.34;;;24.37;36.54
19736;BME280;32064;49.310;8.646;2023-05-27T07:35:34;101249.81;;;24.37;36.73
19736;BME280;32064;49.310;8.646;2023-05-27T07:37:59;101247.41;;;24.51;36.62
19736;BME280;32064;49.310;8.646;2023-05-27T07:40:25;101246.72;;;24.80;36.88
19736;BME280;32064;49.310;8.646;2023-05-27T07:42:51;101251.16;;;25.78;34.49
19736;BME280;32064;49.310;8.646;2023-05-27T07:45:16;101243.06;;;27.23;31.64
19736;BME280;32064;49.310;8.646;2023-05-27T07:47:41;101235.34;;;26.19;34.05
19736;BME280;32064;49.310;8.646;2023-05-27T07:50:07;101250.31;;;27.01;32.73
19736;BME280;32064;49.310;8.646;2023-05-27T07:52:33;101239.56;;;28.80;31.04
19736;BME280;32064;49.310;8.646;2023-05-27T07:54:58;101238.88;;;29.85;29.96
19736;BME280;32064;49.310;8.646;2023-05-27T07:57:24;101234.66;;;30.72;28.58
19736;BME280;32064;49.310;8.646;2023-05-27T07:59:50;101246.63;;;30.96;28.19
19736;BME280;32064;49.310;8.646;2023-05-27T08:02:15;101243.69;;;31.23;27.84
19736;BME280;32064;49.310;8.646;2023-05-27T08:04:40;101240.09;;;29.89;29.36
19736;BME280;32064;49.310;8.646;2023-05-27T08:07:08;101236.69;;;29.02;30.69
19736;BME280;32064;49.310;8.646;2023-05-27T08:09:34;101237.59;;;30.39;28.87
19736;BME280;32064;49.310;8.646;2023-05-27T08:12:00;101234.34;;;31.12;27.99
19736;BME280;32064;49.310;8.646;2023-05-27T08:14:26;101228.25;;;31.60;27.41
19736;BME280;32064;49.310;8.646;2023-05-27T08:16:53;101236.19;;;32.29;26.46
19736;BME280;32064;49.310;8.646;2023-05-27T08:19:19;101234.53;;;32.58;27.24
19736;BME280;32064;49.310;8.646;2023-05-27T08:21:44;101226.91;;;32.18;26.95
19736;BME280;32064;49.310;8.646;2023-05-27T08:24:10;101227.72;;;32.67;27.15
19736;BME280;32064;49.310;8.646;2023-05-27T08:26:35;101238.44;;;33.27;26.41
19736;BME280;32064;49.310;8.646;2023-05-27T08:29:00;101216.38;;;33.05;26.96
19736;BME280;32064;49.310;8.646;2023-05-27T08:31:26;101218.88;;;33.19;25.17
19736;BME280;32064;49.310;8.646;2023-05-27T08:33:52;101222.19;;;33.56;25.54
19736;BME280;32064;49.310;8.646;2023-05-27T08:36:17;101214.03;;;33.21;26.02
19736;BME280;32064;49.310;8.646;2023-05-27T08:38:44;101209.75;;;33.13;25.56
19736;BME280;32064;49.310;8.646;2023-05-27T08:41:10;101211.09;;;32.80;25.46
19736;BME280;32064;49.310;8.646;2023-05-27T08:43:36;101214.94;;;33.15;26.13
19736;BME280;32064;49.310;8.646;2023-05-27T08:46:02;101210.53;;;33.37;26.18
19736;BME280;32064;49.310;8.646;2023-05-27T08:48:28;101196.19;;;33.06;25.89
19736;BME280;32064;49.310;8.646;2023-05-27T08:50:54;101201.78;;;33.00;26.51
19736;BME280;32064;49.310;8.646;2023-05-27T08:53:19;101196.41;;;33.40;25.58
19736;BME280;32064;49.310;8.646;2023-05-27T08:55:46;101196.19;;;33.94;26.11
19736;BME280;32064;49.310;8.646;2023-05-27T08:58:15;101192.22;;;34.59;25.60
19736;BME280;32064;49.310;8.646;2023-05-27T09:00:44;101192.06;;;34.82;25.44
19736;BME280;32064;49.310;8.646;2023-05-27T09:03:10;101186.16;;;35.07;24.56
19736;BME280;32064;49.310;8.646;2023-05-27T09:05:35;101180.72;;;35.29;24.69
19736;BME280;32064;49.310;8.646;2023-05-27T09:08:01;101172.97;;;35.43;24.90
19736;BME280;32064;49.310;8.646;2023-05-27T09:10:40;101181.66;;;35.57;24.69
19736;BME280;32064;49.310;8.646;2023-05-27T09:13:06;101173.94;;;35.76;24.95
19736;BME280;32064;49.310;8.646;2023-05-27T09:15:33;101179.75;;;35.41;23.84
19736;BME280;32064;49.310;8.646;2023-05-27T09:17:59;101182.91;;;35.27;24.18
19736;BME280;32064;49.310;8.646;2023-05-27T09:20:26;101171.25;;;35.37;23.76
19736;BME280;32064;49.310;8.646;2023-05-27T09:23:02;101175.50;;;35.50;24.43
19736;BME280;32064;49.310;8.646;2023-05-27T09:25:28;101173.81;;;35.66;23.96
19736;BME280;32064;49.310;8.646;2023-05-27T09:27:54;101169.78;;;35.95;23.99
19736;BME280;32064;49.310;8.646;2023-05-27T09:30:20;101167.91;;;36.28;24.60
19736;BME280;32064;49.310;8.646;2023-05-27T09:32:47;101164.59;;;36.26;23.69
19736;BME280;32064;49.310;8.646;2023-05-27T09:35:15;101164.66;;;36.04;23.20
19736;BME280;32064;49.310;8.646;2023-05-27T09:37:40;101167.44;;;36.36;23.75
19736;BME280;32064;49.310;8.646;2023-05-27T09:40:11;101168.41;;;36.52;23.19
19736;BME280;32064;49.310;8.646;2023-05-27T09:42:50;101157.97;;;36.49;22.80
19736;BME280;32064;49.310;8.646;2023-05-27T09:45:20;101159.72;;;36.60;23.74
19736;BME280;32064;49.310;8.646;2023-05-27T09:50:14;101153.31;;;36.23;23.67
19736;BME280;32064;49.310;8.646;2023-05-27T09:52:40;101148.53;;;36.40;23.51
19736;BME280;32064;49.310;8.646;2023-05-27T09:55:08;101157.00;;;36.66;23.46
19736;BME280;32064;49.310;8.646;2023-05-27T09:57:34;101145.03;;;36.45;23.39
19736;BME280;32064;49.310;8.646;2023-05-27T10:00:04;101136.78;;;36.45;23.39
19736;BME280;32064;49.310;8.646;2023-05-27T10:02:38;101145.09;;;36.23;23.55
19736;BME280;32064;49.310;8.646;2023-05-27T10:05:06;101138.22;;;35.93;23.36
19736;BME280;32064;49.310;8.646;2023-05-27T10:07:44;101133.56;;;36.20;23.31
19736;BME280;32064;49.310;8.646;2023-05-27T10:10:12;101129.66;;;36.44;22.93
19736;BME280;32064;49.310;8.646;2023-05-27T10:12:39;101126.59;;;36.72;24.23
19736;BME280;32064;49.310;8.646;2023-05-27T10:15:05;101131.56;;;36.75;22.89
19736;BME280;32064;49.310;8.646;2023-05-27T10:17:56;101123.19;;;35.95;23.78
19736;BME280;32064;49.310;8.646;2023-05-27T10:20:32;101127.50;;;36.13;23.33
19736;BME280;32064;49.310;8.646;2023-05-27T10:23:15;101118.19;;;35.92;23.08
19736;BME280;32064;49.310;8.646;2023-05-27T10:25:52;101121.81;;;35.98;23.63
19736;BME280;32064;49.310;8.646;2023-05-27T10:28:28;101130.88;;;36.26;22.70
19736;BME280;32064;49.310;8.646;2023-05-27T10:31:03;101129.91;;;36.42;23.95
19736;BME280;32064;49.310;8.646;2023-05-27T10:33:30;101124.06;;;36.66;23.41
19736;BME280;32064;49.310;8.646;2023-05-27T10:35:56;101113.88;;;36.24;23.24
19736;BME280;32064;49.310;8.646;2023-05-27T10:38:22;101115.22;;;36.53;23.79
19736;BME280;32064;49.310;8.646;2023-05-27T10:40:47;101116.34;;;36.57;23.33
19736;BME280;32064;49.310;8.646;2023-05-27T10:43:17;101118.50;;;36.23;23.25
19736;BME280;32064;49.310;8.646;2023-05-27T10:45:42;101117.59;;;36.45;23.00
19736;BME280;32064;49.310;8.646;2023-05-27T10:48:18;101114.63;;;36.51;23.45
19736;BME280;32064;49.310;8.646;2023-05-27T10:50:56;101104.53;;;36.57;23.82
19736;BME280;32064;49.310;8.646;2023-05-27T10:53:22;101100.88;;;36.83;23.69
19736;BME280;32064;49.310;8.646;2023-05-27T10:55:48;101103.19;;;37.02;23.08
19736;BME280;32064;49.310;8.646;2023-05-27T10:58:16;101093.47;;;36.84;23.46
19736;BME280;32064;49.310;8.646;2023-05-27T11:00:42;101100.72;;;37.05;23.11
19736;BME280;32064;49.310;8.646;2023-05-27T11:03:28;101091.31;;;36.96;22.62
19736;BME280;32064;49.310;8.646;2023-05-27T11:06:12;101089.25;;;37.19;22.91
19736;BME280;32064;49.310;8.646;2023-05-27T11:08:44;101084.63;;;37.29;22.72
19736;BME280;32064;49.310;8.646;2023-05-27T11:11:11;101087.31;;;37.14;22.99
19736;BME280;32064;49.310;8.646;2023-05-27T11:13:41;101084.53;;;37.04;22.57
19736;BME280;32064;49.310;8.646;2023-05-27T11:16:12;101083.78;;;37.24;22.39
19736;BME280;32064;49.310;8.646;2023-05-27T11:18:42;101078.91;;;36.78;22.08
19736;BME280;32064;49.310;8.646;2023-05-27T11:21:10;101084.91;;;36.75;22.48
19736;BME280;32064;49.310;8.646;2023-05-27T11:31:14;101077.94;;;35.44;23.10
19736;BME280;32064;49.310;8.646;2023-05-27T11:33:41;101067.75;;;34.95;23.68
19736;BME280;32064;49.310;8.646;2023-05-27T11:36:11;101059.72;;;34.67;23.64
19736;BME280;32064;49.310;8.646;2023-05-27T11:41:20;101061.69;;;34.04;24.33
19736;BME280;32064;49.310;8.646;2023-05-27T11:43:47;101044.47;;;34.03;25.30
19736;BME280;32064;49.310;8.646;2023-05-27T11:46:13;101041.13;;;33.67;24.86
19736;BME280;32064;49.310;8.646;2023-05-27T11:48:38;101039.38;;;33.61;24.25
19736;BME280;32064;49.310;8.646;2023-05-27T11:51:03;101041.09;;;32.86;24.24
19736;BME280;32064;49.310;8.646;2023-05-27T11:53:31;101035.91;;;32.85;23.95
19736;BME280;32064;49.310;8.646;2023-05-27T11:55:57;101032.72;;;32.76;25.82
19736;BME280;32064;49.310;8.646;2023-05-27T11:58:22;101030.09;;;32.70;24.97
19736;BME280;32064;49.310;8.646;2023-05-27T12:00:48;101033.16;;;32.26;25.50
19736;BME280;32064;49.310;8.646;2023-05-27T12:03:13;101034.88;;;31.85;25.76
19736;BME280;32064;49.310;8.646;2023-05-27T12:05:38;101025.34;;;32.18;25.82
19736;BME280;32064;49.310;8.646;2023-05-27T12:08:04;101019.06;;;32.29;25.63
19736;BME280;32064;49.310;8.646;2023-05-27T12:10:30;101024.50;;;31.94;26.35
19736;BME280;32064;49.310;8.646;2023-05-27T12:13:05;101012.53;;;32.07;25.61
19736;BME280;32064;49.310;8.646;2023-05-27T12:15:31;101005.56;;;32.23;25.84
19736;BME280;32064;49.310;8.646;2023-05-27T12:17:57;100999.78;;;32.42;26.61
19736;BME280;32064;49.310;8.646;2023-05-27T12:20:22;100991.75;;;32.48;26.04
19736;BME280;32064;49.310;8.646;2023-05-27T12:22:55;100999.09;;;32.47;26.56
19736;BME280;32064;49.310;8.646;2023-05-27T12:25:21;100999.19;;;32.17;26.44
19736;BME280;32064;49.310;8.646;2023-05-27T12:27:46;100995.63;;;32.05;26.48
19736;BME280;32064;49.310;8.646;2023-05-27T12:30:11;100986.13;;;32.07;25.96
19736;BME280;32064;49.310;8.646;2023-05-27T12:32:38;100983.66;;;32.06;26.72
19736;BME280;32064;49.310;8.646;2023-05-27T12:35:05;100980.47;;;31.97;26.26
19736;BME280;32064;49.310;8.646;2023-05-27T12:37:30;100987.66;;;31.91;25.96
19736;BME280;32064;49.310;8.646;2023-05-27T12:39:56;100979.69;;;31.78;26.46
19736;BME280;32064;49.310;8.646;2023-05-27T12:42:21;100979.47;;;31.80;26.64
19736;BME280;32064;49.310;8.646;2023-05-27T12:44:47;100980.00;;;31.58;26.28
19736;BME280;32064;49.310;8.646;2023-05-27T12:47:13;100982.00;;;31.32;26.74
19736;BME280;32064;49.310;8.646;2023-05-27T12:49:38;100974.84;;;31.38;26.51
19736;BME280;32064;49.310;8.646;2023-05-27T12:52:04;100970.25;;;31.50;26.62
19736;BME280;32064;49.310;8.646;2023-05-27T12:54:30;100960.91;;;31.46;26.85
19736;BME280;32064;49.310;8.646;2023-05-27T12:56:55;100962.59;;;31.29;27.38
19736;BME280;32064;49.310;8.646;2023-05-27T12:59:21;100952.34;;;30.82;26.74
19736;BME280;32064;49.310;8.646;2023-05-27T13:01:46;100954.38;;;30.87;27.14